createdAt,value
2022-08-30T00:02:20.964Z,95.50
2022-08-30T00:04:48.835Z,95.50
2022-08-30T00:07:16.720Z,95.50
2022-08-30T00:09:44.401Z,95.60
2022-08-30T00:12:12.157Z,95.60
2022-08-30T00:14:39.754Z,95.80
2022-08-30T00:17:07.442Z,95.90
2022-08-30T00:19:35.055Z,95.80
2022-08-30T00:22:02.648Z,96.00
2022-08-30T00:24:30.992Z,96.00
2022-08-30T00:26:58.656Z,96.00
2022-08-30T00:29:26.306Z,96.10
2022-08-30T00:31:53.910Z,96.20
2022-08-30T00:34:21.616Z,96.30
2022-08-30T00:36:49.276Z,96.30
2022-08-30T00:39:16.870Z,96.40
2022-08-30T00:41:44.946Z,96.90
2022-08-30T00:44:12.828Z,96.60
2022-08-30T00:46:40.469Z,96.70
2022-08-30T00:49:11.460Z,96.70
2022-08-30T00:51:41.836Z,96.80
2022-08-30T00:54:10.251Z,96.80
2022-08-30T00:56:38.087Z,96.90
2022-08-30T00:59:07.866Z,96.80
2022-08-30T01:01:37.636Z,96.90
2022-08-30T01:04:08.831Z,97.00
2022-08-30T01:06:37.525Z,97.10
2022-08-30T01:09:06.090Z,97.10
2022-08-30T01:11:37.470Z,97.20
2022-08-30T01:14:06.614Z,97.30
2022-08-30T01:16:35.537Z,97.30
2022-08-30T01:19:03.886Z,97.40
2022-08-30T01:21:53.343Z,97.50
2022-08-30T01:24:21.616Z,97.70
2022-08-30T01:26:49.209Z,97.60
2022-08-30T01:29:23.118Z,97.70
2022-08-30T01:31:50.842Z,97.70
2022-08-30T01:34:19.368Z,98.10
2022-08-30T01:36:47.481Z,98.10
2022-08-30T01:39:17.657Z,97.90
2022-08-30T01:41:45.849Z,97.90
2022-08-30T01:44:14.160Z,98.00
2022-08-30T01:46:45.835Z,98.10
2022-08-30T01:49:16.416Z,98.20
2022-08-30T01:51:44.037Z,98.20
2022-08-30T01:54:12.186Z,98.80
2022-08-30T01:56:39.972Z,98.10
2022-08-30T01:59:07.938Z,98.10
2022-08-30T02:01:37.250Z,98.30
2022-08-30T02:04:06.124Z,98.30
2022-08-30T02:06:34.189Z,98.30
2022-08-30T02:09:01.836Z,98.40
2022-08-30T02:11:29.719Z,98.40
2022-08-30T02:13:57.328Z,98.40
2022-08-30T02:16:26.429Z,98.50
2022-08-30T02:18:57.254Z,98.40
2022-08-30T02:21:27.694Z,98.40
2022-08-30T02:23:55.827Z,98.50
2022-08-30T02:26:24.147Z,98.50
2022-08-30T02:28:53.301Z,98.50
2022-08-30T02:31:22.961Z,98.60
2022-08-30T02:33:52.642Z,98.60
2022-08-30T02:36:21.564Z,98.60
2022-08-30T02:38:50.334Z,98.70
2022-08-30T02:41:19.470Z,98.70
2022-08-30T02:43:47.616Z,98.70
2022-08-30T02:46:15.587Z,98.80
2022-08-30T02:48:43.356Z,98.90
2022-08-30T02:51:13.436Z,99.10
2022-08-30T02:53:42.675Z,99.10
2022-08-30T02:56:12.175Z,99.20
2022-08-30T02:58:42.514Z,99.20
2022-08-30T03:01:13.128Z,99.30
2022-08-30T03:03:41.547Z,99.40
2022-08-30T03:06:10.554Z,99.90
2022-08-30T03:08:38.435Z,99.40
2022-08-30T03:11:06.611Z,99.50
2022-08-30T03:13:34.321Z,99.70
2022-08-30T03:16:02.405Z,99.60
2022-08-30T03:18:30.187Z,99.70
2022-08-30T03:20:57.830Z,99.80
2022-08-30T03:23:25.564Z,99.90
2022-08-30T03:25:53.610Z,99.90
2022-08-30T03:28:21.469Z,99.90
2022-08-30T03:30:49.189Z,99.90
2022-08-30T03:33:18.532Z,99.90
2022-08-30T03:35:48.214Z,99.90
2022-08-30T03:38:16.165Z,99.90
2022-08-30T03:40:43.918Z,99.90
2022-08-30T03:43:12.113Z,99.90
2022-08-30T03:45:40.559Z,99.90
2022-08-30T03:48:08.216Z,99.90
2022-08-30T03:50:36.938Z,99.90
2022-08-30T03:53:04.631Z,99.90
2022-08-30T03:55:32.226Z,99.90
2022-08-30T03:57:59.916Z,99.90
2022-08-30T04:00:27.625Z,99.90
2022-08-30T04:02:55.378Z,99.90
2022-08-30T04:05:23.232Z,99.90
2022-08-30T04:07:50.956Z,99.90
2022-08-30T04:10:21.313Z,99.90
2022-08-30T04:12:51.729Z,99.90
2022-08-30T04:15:19.923Z,99.90
2022-08-30T04:17:48.223Z,99.90
2022-08-30T04:20:17.012Z,99.90
2022-08-30T04:22:45.609Z,99.90
2022-08-30T04:25:15.687Z,99.90
2022-08-30T04:27:45.798Z,99.90
2022-08-30T04:30:19.195Z,99.90
2022-08-30T04:32:46.881Z,99.90
2022-08-30T04:35:15.074Z,99.90
2022-08-30T04:37:42.697Z,99.90
2022-08-30T04:40:11.150Z,99.90
2022-08-30T04:42:38.875Z,99.90
2022-08-30T04:45:10.786Z,99.90
2022-08-30T04:47:39.446Z,99.90
2022-08-30T04:50:09.017Z,99.90
2022-08-30T04:52:37.124Z,99.90
2022-08-30T04:55:05.522Z,99.90
2022-08-30T04:57:33.442Z,99.90
2022-08-30T05:00:01.362Z,99.90
2022-08-30T05:02:29.036Z,99.90
2022-08-30T05:05:15.093Z,99.90
2022-08-30T05:07:42.676Z,99.90
2022-08-30T05:10:11.464Z,99.90
2022-08-30T05:12:40.879Z,99.90
2022-08-30T05:15:09.945Z,99.90
2022-08-30T05:17:41.144Z,99.90
2022-08-30T05:20:10.732Z,99.90
2022-08-30T05:22:40.045Z,99.90
2022-08-30T05:25:09.292Z,99.90
2022-08-30T05:27:42.360Z,99.90
2022-08-30T05:30:10.869Z,99.90
2022-08-30T05:32:38.510Z,99.90
2022-08-30T05:35:07.894Z,99.90
2022-08-30T05:37:35.877Z,99.90
2022-08-30T05:40:05.355Z,99.90
2022-08-30T05:42:41.506Z,99.90
2022-08-30T05:45:10.097Z,99.90
2022-08-30T05:47:38.384Z,99.90
2022-08-30T05:50:07.399Z,99.90
2022-08-30T05:52:37.002Z,99.90
2022-08-30T05:55:07.742Z,99.90
2022-08-30T05:57:37.712Z,99.90
2022-08-30T06:00:19.166Z,99.90
2022-08-30T06:02:47.037Z,99.90
2022-08-30T06:05:14.893Z,99.90
2022-08-30T06:07:43.575Z,99.90
2022-08-30T06:10:12.603Z,99.90
2022-08-30T06:12:40.841Z,99.90
2022-08-30T06:15:08.913Z,99.90
2022-08-30T06:17:36.594Z,99.90
2022-08-30T06:20:04.653Z,99.90
2022-08-30T06:22:32.358Z,99.90
2022-08-30T06:24:59.992Z,99.90
2022-08-30T06:27:27.591Z,99.90
2022-08-30T06:29:55.173Z,99.90
2022-08-30T06:32:22.894Z,99.90
2022-08-30T06:34:50.512Z,99.90
2022-08-30T06:37:29.671Z,99.90
2022-08-30T06:39:59.414Z,99.90
2022-08-30T06:42:32.150Z,99.90
2022-08-30T06:45:01.717Z,99.90
2022-08-30T06:47:30.110Z,99.90
2022-08-30T06:49:58.968Z,99.90
2022-08-30T06:52:27.034Z,99.90
2022-08-30T06:54:59.045Z,99.90
2022-08-30T06:57:26.792Z,99.90
2022-08-30T06:59:58.344Z,99.90
2022-08-30T07:02:26.625Z,99.90
2022-08-30T07:04:54.517Z,99.90
2022-08-30T07:07:23.250Z,99.90
2022-08-30T07:09:50.991Z,99.90
2022-08-30T07:12:18.634Z,99.90
2022-08-30T07:14:46.453Z,99.90
2022-08-30T07:17:34.888Z,99.90
2022-08-30T07:20:04.863Z,99.90
2022-08-30T07:22:35.725Z,99.90
2022-08-30T07:25:03.526Z,99.90
2022-08-30T07:27:31.675Z,99.90
2022-08-30T07:30:01.173Z,99.90
2022-08-30T07:32:29.465Z,99.90
2022-08-30T07:34:57.158Z,99.90
2022-08-30T07:37:24.863Z,99.90
2022-08-30T07:39:52.899Z,99.90
2022-08-30T07:42:20.542Z,99.90
2022-08-30T07:44:48.254Z,99.90
2022-08-30T07:47:16.844Z,99.90
2022-08-30T07:49:44.448Z,99.90
2022-08-30T07:52:12.114Z,99.90
2022-08-30T07:54:39.729Z,99.90
2022-08-30T07:57:07.285Z,99.90
2022-08-30T07:59:36.181Z,99.90
2022-08-30T08:02:04.785Z,99.90
2022-08-30T08:04:33.244Z,99.90
2022-08-30T08:07:01.046Z,99.90
2022-08-30T08:09:28.705Z,99.90
2022-08-30T08:11:56.488Z,99.90
2022-08-30T08:14:24.321Z,99.90
2022-08-30T08:16:52.553Z,99.90
2022-08-30T08:19:20.640Z,99.90
2022-08-30T08:21:52.786Z,99.90
2022-08-30T08:24:28.222Z,98.90
2022-08-30T08:26:56.264Z,99.00
2022-08-30T08:29:24.140Z,99.00
2022-08-30T08:31:51.797Z,98.60
2022-08-30T08:34:23.315Z,98.70
2022-08-30T08:36:51.339Z,98.70
2022-08-30T08:39:19.160Z,98.60
2022-08-30T08:42:08.150Z,98.30
2022-08-30T08:44:53.477Z,98.40
2022-08-30T08:47:28.434Z,98.20
2022-08-30T08:50:00.117Z,98.40
2022-08-30T08:53:20.546Z,98.00
2022-08-30T08:55:58.639Z,97.90
2022-08-30T08:58:29.340Z,98.10
2022-08-30T09:00:59.159Z,98.10
2022-08-30T09:03:29.279Z,98.10
2022-08-30T09:05:59.144Z,98.20
2022-08-30T09:08:27.460Z,98.30
2022-08-30T09:10:57.047Z,98.40
2022-08-30T09:13:25.756Z,97.90
2022-08-30T09:15:57.436Z,97.50
2022-08-30T09:18:51.265Z,97.50
2022-08-30T09:21:25.912Z,96.60
2022-08-30T09:23:59.920Z,96.90
2022-08-30T09:26:36.686Z,96.60
2022-08-30T09:29:16.281Z,96.60
2022-08-30T09:32:10.064Z,96.60
2022-08-30T09:34:44.177Z,95.60
2022-08-30T09:37:26.245Z,96.10
2022-08-30T09:39:54.225Z,95.60
2022-08-30T09:42:30.074Z,96.00
2022-08-30T09:45:10.631Z,95.70
2022-08-30T09:47:43.872Z,95.00
2022-08-30T09:50:18.694Z,95.00
2022-08-30T09:53:13.258Z,94.30
2022-08-30T09:55:41.219Z,92.80
2022-08-30T09:58:12.887Z,94.00
2022-08-30T10:00:47.662Z,93.80
2022-08-30T10:03:41.437Z,93.40
2022-08-30T10:06:40.503Z,93.00
2022-08-30T10:09:15.554Z,91.80
2022-08-30T10:12:04.376Z,92.90
2022-08-30T10:14:59.761Z,91.40
2022-08-30T10:17:45.204Z,91.00
2022-08-30T10:20:39.750Z,90.50
2022-08-30T10:23:12.713Z,90.50
2022-08-30T10:25:48.903Z,91.40
2022-08-30T10:28:31.516Z,91.10
2022-08-30T10:31:07.836Z,90.90
2022-08-30T10:33:43.420Z,89.30
2022-08-30T10:36:14.227Z,90.60
2022-08-30T10:38:50.024Z,90.70
2022-08-30T10:41:24.517Z,90.40
2022-08-30T10:44:21.161Z,90.10
2022-08-30T10:47:05.031Z,86.60
2022-08-30T10:49:42.054Z,85.80
2022-08-30T10:52:18.750Z,86.00
2022-08-30T10:54:55.002Z,83.40
2022-08-30T10:57:23.402Z,78.50
2022-08-30T11:00:06.095Z,80.80
2022-08-30T11:02:52.866Z,74.90
2022-08-30T11:05:42.392Z,75.50
2022-08-30T11:08:28.582Z,74.30
2022-08-30T11:11:16.851Z,72.90
2022-08-30T11:13:46.154Z,71.70
2022-08-30T11:16:16.906Z,73.50
2022-08-30T11:18:51.664Z,71.70
2022-08-30T11:21:41.454Z,71.80
2022-08-30T11:24:23.734Z,68.50
2022-08-30T11:26:57.714Z,66.30
2022-08-30T11:29:42.099Z,68.20
2022-08-30T11:32:13.220Z,66.40
2022-08-30T11:34:47.376Z,68.80
2022-08-30T11:37:37.218Z,67.80
2022-08-30T11:40:06.745Z,68.20
2022-08-30T11:42:45.021Z,66.70
2022-08-30T11:45:36.168Z,69.30
2022-08-30T11:48:28.423Z,68.60
2022-08-30T11:51:05.320Z,68.60
2022-08-30T11:53:58.380Z,68.90
2022-08-30T11:56:54.542Z,68.40
2022-08-30T11:59:59.988Z,68.00
2022-08-30T12:02:39.418Z,65.60
2022-08-30T12:05:07.842Z,65.10
2022-08-30T12:08:01.846Z,66.50
2022-08-30T12:10:38.980Z,64.90
2022-08-30T12:13:31.027Z,65.40
2022-08-30T12:16:22.197Z,66.70
2022-08-30T12:19:18.237Z,67.10
2022-08-30T12:22:00.574Z,68.80
2022-08-30T12:24:36.867Z,69.00
2022-08-30T12:27:25.167Z,68.80
2022-08-30T12:30:01.374Z,68.70
2022-08-30T12:32:33.489Z,68.30
2022-08-30T12:35:04.582Z,68.20
2022-08-30T12:37:42.263Z,67.10
2022-08-30T12:40:21.173Z,67.30
2022-08-30T12:43:02.817Z,67.90
2022-08-30T12:45:41.805Z,67.70
2022-08-30T12:48:14.443Z,67.70
2022-08-30T12:50:52.153Z,68.80
2022-08-30T12:53:37.525Z,68.80
2022-08-30T12:56:11.388Z,69.00
2022-08-30T12:58:54.113Z,68.90
2022-08-30T13:01:28.198Z,68.80
2022-08-30T13:03:56.561Z,68.80
2022-08-30T13:06:56.043Z,68.80
2022-08-30T13:09:53.036Z,68.40
2022-08-30T13:12:26.356Z,68.70
2022-08-30T13:15:16.554Z,69.10
2022-08-30T13:17:45.748Z,70.20
2022-08-30T13:20:16.987Z,69.70
2022-08-30T13:23:27.550Z,70.60
2022-08-30T13:25:55.798Z,70.80
2022-08-30T13:28:24.198Z,70.30
2022-08-30T13:31:16.376Z,70.70
2022-08-30T13:33:47.631Z,70.90
2022-08-30T13:36:16.637Z,71.10
2022-08-30T13:38:45.060Z,70.40
2022-08-30T13:41:13.036Z,70.10
2022-08-30T13:46:37.145Z,69.50
2022-08-30T13:49:45.353Z,69.30
2022-08-30T13:52:19.813Z,69.30
2022-08-30T13:54:57.825Z,69.20
2022-08-30T14:00:19.720Z,70.20
2022-08-30T14:02:54.051Z,71.10
2022-08-30T14:08:45.320Z,73.00
2022-08-30T14:11:18.579Z,73.50
2022-08-30T14:16:37.397Z,74.60
2022-08-30T14:19:05.880Z,74.90
2022-08-30T14:21:36.187Z,74.60
2022-08-30T14:24:06.659Z,73.80
2022-08-30T14:26:47.723Z,73.20
2022-08-30T14:29:20.732Z,71.60
2022-08-30T14:31:48.994Z,72.10
2022-08-30T14:34:24.436Z,72.00
2022-08-30T14:36:54.557Z,71.50
2022-08-30T14:39:23.040Z,71.10
2022-08-30T14:41:53.459Z,71.10
2022-08-30T14:44:24.090Z,71.70
2022-08-30T14:46:57.896Z,72.00
2022-08-30T14:49:27.361Z,71.80
2022-08-30T14:51:56.089Z,72.40
2022-08-30T14:54:27.876Z,72.20
2022-08-30T14:56:56.358Z,72.60
2022-08-30T14:59:26.064Z,72.70
2022-08-30T15:01:54.353Z,73.00
2022-08-30T15:04:23.085Z,73.30
2022-08-30T15:06:51.599Z,73.70
2022-08-30T15:09:23.569Z,73.80
2022-08-30T15:11:58.497Z,74.60
2022-08-30T15:14:28.502Z,74.70
2022-08-30T15:16:58.712Z,74.90
2022-08-30T15:19:27.719Z,75.00
2022-08-30T15:22:04.788Z,75.00
2022-08-30T15:24:33.191Z,75.30
2022-08-30T15:27:01.987Z,75.00
2022-08-30T15:29:31.861Z,75.00
2022-08-30T15:32:02.011Z,74.80
2022-08-30T15:34:31.514Z,74.70
2022-08-30T15:36:59.505Z,74.60
2022-08-30T15:39:27.602Z,74.70
2022-08-30T15:42:01.300Z,74.80
2022-08-30T15:44:31.991Z,75.00
2022-08-30T15:47:00.222Z,75.70
2022-08-30T15:49:28.676Z,75.30
2022-08-30T15:52:02.354Z,75.40
2022-08-30T15:54:31.822Z,75.50
2022-08-30T15:57:00.312Z,75.40
2022-08-30T15:59:31.383Z,75.10
2022-08-30T16:01:59.745Z,75.10
2022-08-30T16:04:27.811Z,75.00
2022-08-30T16:06:58.561Z,75.20
2022-08-30T16:09:29.983Z,75.20
2022-08-30T16:12:01.008Z,75.20
2022-08-30T16:14:30.857Z,75.20
2022-08-30T16:16:59.262Z,75.40
2022-08-30T16:19:28.340Z,75.50
2022-08-30T16:22:00.068Z,75.70
2022-08-30T16:24:28.154Z,75.70
2022-08-30T16:26:59.033Z,76.00
2022-08-30T16:29:27.141Z,76.40
2022-08-30T16:31:57.420Z,76.50
2022-08-30T16:34:25.922Z,77.00
2022-08-30T16:36:54.059Z,76.90
2022-08-30T16:39:23.447Z,77.10
2022-08-30T16:41:54.303Z,77.30
2022-08-30T16:44:29.851Z,77.60
2022-08-30T16:46:58.347Z,77.90
2022-08-30T16:49:26.766Z,78.40
2022-08-30T16:51:55.124Z,79.20
2022-08-30T16:54:23.767Z,79.00
2022-08-30T16:56:52.586Z,79.10
2022-08-30T16:59:20.633Z,79.30
2022-08-30T17:01:51.702Z,79.80
2022-08-30T17:04:20.546Z,79.80
2022-08-30T17:06:50.191Z,80.90
2022-08-30T17:09:19.849Z,80.70
2022-08-30T17:11:48.577Z,81.20
2022-08-30T17:14:22.882Z,81.50
2022-08-30T17:16:57.400Z,81.60
2022-08-30T17:19:26.982Z,81.90
2022-08-30T17:21:58.198Z,81.90
2022-08-30T17:24:27.251Z,82.30
2022-08-30T17:26:55.403Z,82.20
2022-08-30T17:29:23.269Z,81.80
2022-08-30T17:31:54.016Z,82.00
2022-08-30T17:34:22.777Z,81.90
2022-08-30T17:36:52.753Z,82.60
2022-08-30T17:39:23.561Z,82.20
2022-08-30T17:41:51.834Z,82.40
2022-08-30T17:44:26.997Z,82.50
2022-08-30T17:46:57.335Z,82.90
2022-08-30T17:49:27.385Z,82.90
2022-08-30T17:51:57.119Z,82.90
2022-08-30T17:54:27.124Z,83.10
2022-08-30T17:56:56.362Z,83.80
2022-08-30T17:59:25.618Z,83.80
2022-08-30T18:01:59.383Z,83.60
2022-08-30T18:04:29.469Z,83.70
2022-08-30T18:06:59.798Z,83.70
2022-08-30T18:09:33.205Z,83.70
2022-08-30T18:16:49.417Z,83.90
2022-08-30T18:19:24.586Z,83.30
2022-08-30T18:21:55.507Z,83.30
2022-08-30T18:24:26.532Z,83.10
2022-08-30T18:26:56.317Z,82.90
2022-08-30T18:29:30.131Z,82.70
2022-08-30T18:32:03.627Z,82.60
2022-08-30T18:34:39.436Z,82.80
2022-08-30T18:37:12.502Z,82.70
2022-08-30T18:39:41.410Z,82.80
2022-08-30T18:42:14.249Z,82.80
2022-08-30T18:44:45.045Z,82.90
2022-08-30T18:47:15.517Z,83.00
2022-08-30T18:49:45.128Z,83.20
2022-08-30T18:52:13.451Z,83.40
2022-08-30T18:54:58.932Z,83.50
2022-08-30T18:57:26.732Z,84.20
2022-08-30T19:00:12.490Z,84.30
2022-08-30T19:02:40.445Z,84.30
2022-08-30T19:05:11.351Z,84.50
2022-08-30T19:07:45.576Z,84.80
2022-08-30T19:10:15.806Z,85.10
2022-08-30T19:12:51.811Z,85.90
2022-08-30T19:15:21.371Z,85.80
2022-08-30T19:17:50.438Z,85.90
2022-08-30T19:20:21.069Z,86.30
2022-08-30T19:23:14.272Z,86.70
2022-08-30T19:25:43.366Z,87.50
2022-08-30T19:28:12.336Z,87.00
2022-08-30T19:30:48.573Z,87.40
2022-08-30T19:33:17.653Z,88.40
2022-08-30T19:35:51.334Z,88.20
2022-08-30T19:38:20.147Z,88.60
2022-08-30T19:40:52.398Z,88.70
2022-08-30T19:43:22.479Z,89.30
2022-08-30T19:45:56.882Z,89.70
2022-08-30T19:48:32.723Z,90.60
2022-08-30T19:51:10.636Z,90.50
2022-08-30T19:53:38.891Z,90.20
2022-08-30T19:56:06.854Z,90.40
2022-08-30T19:59:09.446Z,91.00
2022-08-30T20:02:39.270Z,91.90
2022-08-30T20:05:10.727Z,91.90
2022-08-30T20:07:40.684Z,91.10
2022-08-30T20:10:13.678Z,91.30
2022-08-30T20:12:45.521Z,91.60
2022-08-30T20:15:18.241Z,91.60
2022-08-30T20:18:05.527Z,91.70
2022-08-30T20:20:49.460Z,91.80
2022-08-30T20:23:21.486Z,91.80
2022-08-30T20:25:57.379Z,91.90
2022-08-30T20:28:25.917Z,92.30
2022-08-30T20:30:56.997Z,92.10
2022-08-30T20:33:25.807Z,92.20
2022-08-30T20:35:54.301Z,92.30
2022-08-30T20:38:22.277Z,92.40
2022-08-30T20:40:56.724Z,92.40
2022-08-30T20:43:28.905Z,92.60
2022-08-30T20:45:56.947Z,92.60
2022-08-30T20:48:29.779Z,92.70
2022-08-30T20:51:04.698Z,92.70
2022-08-30T20:53:32.463Z,92.90
2022-08-30T20:56:11.842Z,93.00
2022-08-30T20:58:39.602Z,93.10
2022-08-30T21:01:20.515Z,93.10
2022-08-30T21:03:57.533Z,93.30
2022-08-30T21:06:28.977Z,93.30
2022-08-30T21:08:57.072Z,93.70
2022-08-30T21:11:26.684Z,93.50
2022-08-30T21:13:57.293Z,93.50
2022-08-30T21:16:25.206Z,93.40
2022-08-30T21:18:59.914Z,93.50
2022-08-30T21:21:32.918Z,93.50
2022-08-30T21:24:11.768Z,93.50
2022-08-30T21:26:41.827Z,93.40
2022-08-30T21:29:14.319Z,93.50
2022-08-30T21:31:44.026Z,93.60
2022-08-30T21:34:18.060Z,93.70
2022-08-30T21:36:46.880Z,93.90
2022-08-30T21:39:18.954Z,94.00
2022-08-30T21:41:49.292Z,94.10
2022-08-30T21:44:21.820Z,94.20
2022-08-30T21:47:23.273Z,94.30
2022-08-30T21:49:51.951Z,94.40
2022-08-30T21:52:19.658Z,94.50
2022-08-30T21:54:48.983Z,94.70
2022-08-30T21:57:17.091Z,94.80
2022-08-30T21:59:45.674Z,94.90
2022-08-30T22:02:13.438Z,95.00
2022-08-30T22:04:41.921Z,95.10
2022-08-30T22:07:09.732Z,95.20
2022-08-30T22:09:40.576Z,95.30
2022-08-30T22:12:08.531Z,95.60
2022-08-30T22:14:36.396Z,95.50
2022-08-30T22:17:19.182Z,95.50
2022-08-30T22:19:55.150Z,95.60
2022-08-30T22:22:22.965Z,95.70
2022-08-30T22:24:52.313Z,95.90
2022-08-30T22:27:20.090Z,96.10
2022-08-30T22:29:50.366Z,96.10
2022-08-30T22:32:24.034Z,96.30
2022-08-30T22:34:52.123Z,96.20
2022-08-30T22:37:29.168Z,96.30
2022-08-30T22:39:57.145Z,96.40
2022-08-30T22:42:27.423Z,96.40
2022-08-30T22:44:57.817Z,96.50
2022-08-30T22:47:25.698Z,96.60
2022-08-30T22:49:55.810Z,96.70
2022-08-30T22:52:32.272Z,96.80
2022-08-30T22:55:00.629Z,96.90
2022-08-30T22:57:28.420Z,97.00
2022-08-30T22:59:58.548Z,97.20
2022-08-30T23:02:26.432Z,97.30
2022-08-30T23:04:54.229Z,97.40
2022-08-30T23:07:22.177Z,97.50
2022-08-30T23:09:51.747Z,97.90
2022-08-30T23:12:22.438Z,97.60
2022-08-30T23:14:53.207Z,97.70
2022-08-30T23:17:22.655Z,98.20
2022-08-30T23:19:50.429Z,98.20
2022-08-30T23:22:18.198Z,97.50
2022-08-30T23:25:12.649Z,97.80
2022-08-30T23:28:04.418Z,98.00
2022-08-30T23:30:50.633Z,98.00
2022-08-30T23:33:48.658Z,98.10
2022-08-30T23:36:35.117Z,98.20
2022-08-30T23:39:22.111Z,98.20
2022-08-30T23:42:09.233Z,98.40
2022-08-30T23:44:55.537Z,98.40
2022-08-30T23:47:42.048Z,98.60
2022-08-30T23:50:28.725Z,98.50
2022-08-30T23:53:17.880Z,98.60
2022-08-30T23:56:08.841Z,98.70
2022-08-30T23:58:58.050Z,98.70
